Time;durP1;ratioP1;P1;durP2;ratioP2;P2;SDS_P1;SDS_P2;PMS_P1;PMS_P2;Temp;Humidity;BMP_temperature;BMP_pressure;BME280_temperature;BME280_humidity;BME280_pressure;Samples;Min_cycle;Max_cycle;Signal;HPM_P1;HPM_P2
2020/12/25 00:03:01;;;;;;;2.27;1.60;;;6.10;1.00;;;;;;5074352;28;20232;-75
2020/12/25 00:05:32;;;;;;;2.17;1.97;;;6.10;1.00;;;;;;5087503;28;20409;-75
2020/12/25 00:08:25;;;;;;;3.20;2.50;;;6.00;1.00;;;;;;5093218;28;20925;-75
2020/12/25 00:10:56;;;;;;;3.23;2.17;;;6.10;1.00;;;;;;5094026;28;20416;-75
2020/12/25 00:13:38;;;;;;;3.57;2.20;;;6.20;1.00;;;;;;5093783;28;20396;-76
2020/12/25 00:19:26;;;;;;;5.87;1.80;;;6.20;1.00;;;;;;5092920;28;20499;-77
2020/12/25 00:21:52;;;;;;;1.90;1.67;;;6.20;1.00;;;;;;5076873;28;20466;-77
2020/12/25 00:24:37;;;;;;;2.07;1.87;;;6.20;1.00;;;;;;5077035;28;20413;-77
2020/12/25 00:27:08;;;;;;;1.90;1.73;;;6.20;1.00;;;;;;5093035;28;20178;-77
2020/12/25 00:29:55;;;;;;;2.00;1.67;;;6.20;1.00;;;;;;5081604;28;20409;-78
2020/12/25 00:32:38;;;;;;;2.70;1.93;;;6.20;1.00;;;;;;5075000;28;20429;-75
2020/12/25 00:35:05;;;;;;;1.60;1.50;;;6.10;1.00;;;;;;5093471;28;20423;-75
2020/12/25 00:37:32;;;;;;;5.13;2.17;;;6.10;1.00;;;;;;5085839;28;20907;-76
2020/12/25 00:40:25;;;;;;;1.77;1.67;;;6.10;1.00;;;;;;5073491;28;20445;-75
2020/12/25 00:42:56;;;;;;;1.70;1.60;;;6.10;1.00;;;;;;5073534;28;20393;-75
2020/12/25 00:45:34;;;;;;;1.50;1.40;;;6.10;1.00;;;;;;5073298;28;20389;-76
2020/12/25 00:51:32;;;;;;;1.57;1.47;;;6.10;1.00;;;;;;5072841;28;20431;-77
2020/12/25 00:54:14;;;;;;;1.57;1.47;;;6.10;1.00;;;;;;5082970;28;20428;-77
2020/12/25 01:00:03;;;;;;;2.70;1.20;;;6.20;1.00;;;;;;5072684;28;20459;-77
2020/12/25 01:05:50;;;;;;;4.00;1.60;;;6.20;1.00;;;;;;5072831;28;20174;-77
2020/12/25 01:08:26;;;;;;;2.20;1.60;;;6.20;1.00;;;;;;5093026;28;20385;-78
2020/12/25 01:14:31;;;;;;;5.70;1.20;;;6.10;1.00;;;;;;5077113;28;20400;-77
2020/12/25 01:16:58;;;;;;;1.60;1.50;;;6.10;1.00;;;;;;5082869;28;20432;-75
2020/12/25 01:19:26;;;;;;;2.00;1.50;;;6.00;1.00;;;;;;5077154;28;20494;-75
2020/12/25 01:21:53;;;;;;;4.03;1.77;;;5.90;1.00;;;;;;5080886;28;20421;-75
2020/12/25 01:24:32;;;;;;;1.47;1.37;;;5.90;1.00;;;;;;5077870;28;20433;-76
2020/12/25 01:27:25;;;;;;;1.67;1.60;;;5.90;1.00;;;;;;5075621;28;20417;-76
2020/12/25 01:30:13;;;;;;;5.30;2.58;;;5.90;1.00;;;;;;5076407;28;20413;-75
2020/12/25 01:36:14;;;;;;;4.23;1.60;;;5.90;1.00;;;;;;5091777;28;20480;-77
2020/12/25 01:39:07;;;;;;;2.53;1.70;;;5.90;1.00;;;;;;5096796;28;20926;-77
2020/12/25 01:42:01;;;;;;;2.80;1.73;;;5.90;1.00;;;;;;5096998;28;20384;-77
2020/12/25 01:44:38;;;;;;;5.70;1.97;;;5.90;1.00;;;;;;5096632;28;20393;-77
2020/12/25 01:47:08;;;;;;;5.28;1.70;;;5.90;1.00;;;;;;5077842;28;20419;-76
2020/12/25 01:49:50;;;;;;;6.27;1.63;;;6.00;1.00;;;;;;5076684;28;20196;-75
2020/12/25 01:52:26;;;;;;;2.70;2.00;;;6.00;1.00;;;;;;5076686;28;20939;-75
2020/12/25 01:54:53;;;;;;;2.33;1.85;;;6.00;1.00;;;;;;5076333;28;20400;-75
2020/12/25 01:57:29;;;;;;;8.80;2.10;;;5.90;1.00;;;;;;5078350;28;20507;-75
2020/12/25 01:59:56;;;;;;;2.23;1.60;;;5.80;1.00;;;;;;5076133;28;20799;-75
2020/12/25 02:02:38;;;;;;;1.95;1.58;;;5.80;1.00;;;;;;5076622;28;20402;-77
2020/12/25 02:05:38;;;;;;;1.92;1.70;;;5.80;1.00;;;;;;5076238;28;20242;-78
2020/12/25 02:08:09;;;;;;;1.85;1.70;;;5.80;1.00;;;;;;5075762;28;20242;-78
2020/12/25 02:10:36;;;;;;;3.90;1.87;;;5.80;1.00;;;;;;5080284;28;20202;-77
2020/12/25 02:13:09;;;;;;;1.55;1.45;;;5.90;1.00;;;;;;5096176;28;20393;-77
2020/12/25 02:15:44;;;;;;;2.90;1.37;;;5.80;1.00;;;;;;5076012;28;20167;-77
2020/12/25 02:18:14;;;;;;;1.50;1.40;;;5.80;1.00;;;;;;5076125;28;20405;-77
2020/12/25 02:20:44;;;;;;;1.80;1.30;;;5.80;1.00;;;;;;5082686;28;20680;-78
2020/12/25 02:23:14;;;;;;;2.00;1.80;;;5.70;1.00;;;;;;5095259;28;20392;-77
2020/12/25 02:25:44;;;;;;;1.38;1.20;;;5.60;1.00;;;;;;5096207;28;20393;-78
2020/12/25 02:28:09;;;;;;;3.63;1.77;;;5.40;1.00;;;;;;5075577;28;20190;-77
2020/12/25 02:30:50;;;;;;;1.67;1.33;;;5.40;1.00;;;;;;5075870;28;20393;-77
2020/12/25 02:33:26;;;;;;;5.82;1.40;;;5.50;1.00;;;;;;5081134;28;20181;-77
2020/12/25 02:36:13;;;;;;;2.00;1.15;;;5.50;1.00;;;;;;5079679;28;20518;-77
2020/12/25 02:38:50;;;;;;;1.50;1.40;;;5.50;1.00;;;;;;5075569;28;20198;-77
2020/12/25 02:44:38;;;;;;;1.05;1.05;;;5.70;1.00;;;;;;5083001;28;20190;-77
2020/12/25 02:47:08;;;;;;;1.35;1.15;;;5.60;1.00;;;;;;5075632;28;20155;-77
2020/12/25 02:49:38;;;;;;;1.27;1.20;;;5.70;1.00;;;;;;5075770;28;20724;-75
2020/12/25 02:52:04;;;;;;;1.67;1.43;;;5.70;1.00;;;;;;5092761;28;20408;-76
2020/12/25 02:54:38;;;;;;;1.10;1.10;;;5.70;1.00;;;;;;5085975;28;20558;-75
2020/12/25 02:57:14;;;;;;;2.27;1.30;;;5.70;1.00;;;;;;5075554;28;20606;-76
2020/12/25 02:59:50;;;;;;;1.50;1.40;;;5.70;1.00;;;;;;5074835;28;20987;-75
2020/12/25 03:05:44;;;;;;;1.35;1.25;;;5.70;1.00;;;;;;5075115;28;20262;-77
2020/12/25 03:08:14;;;;;;;1.02;0.93;;;5.60;1.00;;;;;;5075013;28;20736;-77
2020/12/25 03:10:56;;;;;;;1.25;1.00;;;5.50;1.00;;;;;;5075072;28;20648;-77
2020/12/25 03:13:38;;;;;;;1.40;1.30;;;5.40;1.00;;;;;;5074444;28;20171;-77
2020/12/25 03:19:25;;;;;;;1.20;1.10;;;5.30;1.00;;;;;;5074993;28;20332;-75
2020/12/25 03:22:13;;;;;;;1.20;0.97;;;5.20;1.00;;;;;;5075948;28;20628;-75
2020/12/25 03:24:44;;;;;;;4.60;1.30;;;5.20;1.00;;;;;;5084914;28;20167;-75
2020/12/25 03:27:37;;;;;;;0.90;0.90;;;5.20;1.00;;;;;;5085852;28;20208;-75
2020/12/25 03:30:04;;;;;;;1.30;1.20;;;5.10;1.00;;;;;;5082065;28;20542;-75
2020/12/25 03:32:32;;;;;;;0.82;0.82;;;5.10;1.00;;;;;;5094889;28;20171;-76
2020/12/25 03:34:58;;;;;;;2.97;1.13;;;5.20;1.00;;;;;;5094659;28;20755;-75
2020/12/25 03:37:23;;;;;;;1.47;1.37;;;5.20;1.00;;;;;;5094369;28;20226;-75
2020/12/25 03:39:49;;;;;;;4.63;1.50;;;5.20;1.00;;;;;;5092008;28;20735;-76
2020/12/25 03:42:20;;;;;;;0.93;0.93;;;5.20;1.00;;;;;;5074006;28;20238;-75
2020/12/25 03:45:03;;;;;;;0.90;0.90;;;5.30;1.00;;;;;;5080367;28;20191;-75
2020/12/25 03:47:38;;;;;;;1.00;1.00;;;5.10;1.00;;;;;;5092000;28;20175;-75
2020/12/25 03:50:49;;;;;;;1.00;0.90;;;5.10;1.00;;;;;;5078959;28;20170;-78
2020/12/25 03:53:15;;;;;;;0.98;0.98;;;5.10;1.00;;;;;;5081828;28;20198;-78
2020/12/25 03:56:19;;;;;;;1.33;1.23;;;5.20;1.00;;;;;;5075282;28;20260;-77
2020/12/25 03:59:07;;;;;;;1.27;1.10;;;5.20;1.00;;;;;;5073716;28;20266;-77
2020/12/25 04:05:19;;;;;;;1.05;0.95;;;5.20;1.00;;;;;;5074128;28;20998;-77
2020/12/25 04:07:45;;;;;;;1.05;0.95;;;;;;;;;;5074030;28;20167;-77
2020/12/25 04:10:26;;;;;;;1.30;1.20;;;5.10;1.00;;;;;;5073724;28;20228;-78
2020/12/25 04:13:31;;;;;;;0.82;0.82;;;5.10;1.00;;;;;;5073642;28;20427;-78
2020/12/25 04:16:31;;;;;;;1.80;1.25;;;5.10;1.00;;;;;;5074127;28;20188;-77
2020/12/25 04:18:57;;;;;;;1.20;1.10;;;5.10;1.00;;;;;;5073885;28;20163;-75
2020/12/25 04:21:32;;;;;;;3.10;1.60;;;5.10;1.00;;;;;;5092052;28;20228;-75
2020/12/25 04:24:08;;;;;;;1.38;1.27;;;5.20;1.00;;;;;;5093833;28;20609;-75
2020/12/25 04:26:38;;;;;;;0.98;0.98;;;5.20;1.00;;;;;;5093272;28;20182;-75
2020/12/25 04:32:26;;;;;;;3.83;0.82;;;5.00;1.00;;;;;;5073897;28;20268;-75
2020/12/25 04:34:52;;;;;;;1.10;1.00;;;5.10;1.00;;;;;;5074105;28;20610;-75
2020/12/25 04:37:18;;;;;;;17.83;0.93;;;5.20;1.00;;;;;;5073684;28;20552;-75
2020/12/25 04:39:50;;;;;;;3.00;1.30;;;5.30;1.00;;;;;;5073404;28;20455;-75
2020/12/25 04:42:26;;;;;;;1.90;1.10;;;5.40;1.00;;;;;;5092391;28;20903;-76
2020/12/25 04:44:56;;;;;;;1.10;1.10;;;5.20;1.00;;;;;;5079763;28;20171;-75
2020/12/25 04:47:23;;;;;;;1.40;1.30;;;5.30;1.00;;;;;;5072624;28;20171;-76
2020/12/25 04:50:37;;;;;;;1.73;1.10;;;5.40;1.00;;;;;;5078588;28;20182;-77
2020/12/25 04:53:08;;;;;;;2.45;1.75;;;5.30;1.00;;;;;;5073533;28;20156;-77
2020/12/25 04:55:50;;;;;;;1.70;1.27;;;5.30;1.00;;;;;;5073542;28;20159;-77
2020/12/25 04:58:20;;;;;;;2.03;1.15;;;5.40;1.00;;;;;;5073129;28;20206;-77
2020/12/25 05:01:05;;;;;;;0.82;0.80;;;5.50;1.00;;;;;;5072723;28;20202;-77
2020/12/25 05:03:42;;;;;;;1.33;1.20;;;5.50;1.00;;;;;;5073144;28;20190;-77
2020/12/25 05:09:32;;;;;;;2.13;1.30;;;5.60;1.00;;;;;;5084019;28;20277;-77
2020/12/25 05:12:26;;;;;;;1.58;1.30;;;5.50;1.00;;;;;;5075146;28;20428;-77
2020/12/25 05:15:37;;;;;;;1.17;1.10;;;5.50;1.00;;;;;;5072683;28;20179;-77
2020/12/25 05:18:09;;;;;;;1.00;0.90;;;5.60;1.00;;;;;;5072835;28;20411;-77
2020/12/25 05:20:38;;;;;;;1.40;1.30;;;5.60;1.00;;;;;;5073303;28;20199;-77
2020/12/25 05:26:52;;;;;;;3.03;1.47;;;5.60;1.00;;;;;;5072820;28;20202;-77
2020/12/25 05:29:19;;;;;;;1.10;1.00;;;5.50;1.00;;;;;;5079334;28;20455;-77
2020/12/25 05:32:25;;;;;;;1.40;1.27;;;5.50;1.00;;;;;;5093403;28;20392;-77
2020/12/25 05:35:06;;;;;;;1.00;1.00;;;5.60;1.00;;;;;;5078475;28;20466;-76
2020/12/25 05:37:36;;;;;;;1.30;1.20;;;5.50;1.00;;;;;;5072938;28;20532;-76
2020/12/25 05:40:09;;;;;;;2.72;1.30;;;5.50;1.00;;;;;;5073169;28;20476;-75
2020/12/25 05:42:48;;;;;;;1.33;1.23;;;5.30;1.00;;;;;;5089064;28;20242;-75
2020/12/25 05:45:18;;;;;;;2.57;1.50;;;5.40;1.00;;;;;;5078784;28;20171;-76
2020/12/25 05:48:16;;;;;;;12.18;1.15;;;5.40;1.00;;;;;;5086384;28;20462;-75
2020/12/25 05:50:50;;;;;;;2.70;1.20;;;5.30;1.00;;;;;;4994884;28;20538;-75
2020/12/25 05:53:38;;;;;;;2.70;1.63;;;5.10;1.00;;;;;;4992703;28;20431;-75
2020/12/25 05:56:26;;;;;;;2.42;1.50;;;5.00;1.00;;;;;;4991561;28;20166;-75
2020/12/25 05:58:55;;;;;;;1.35;1.25;;;5.00;1.00;;;;;;4993911;28;20182;-75
2020/12/25 06:01:26;;;;;;;1.50;1.40;;;5.00;1.00;;;;;;4994956;28;20197;-75
2020/12/25 06:03:51;;;;;;;3.03;1.50;;;5.00;1.00;;;;;;4994959;28;20170;-75
2020/12/25 06:06:33;;;;;;;2.17;1.57;;;5.10;1.00;;;;;;4995327;28;20173;-78
2020/12/25 06:09:14;;;;;;;2.40;1.40;;;5.00;1.00;;;;;;4994448;28;20217;-78
2020/12/25 06:11:56;;;;;;;1.17;1.08;;;5.00;1.00;;;;;;4994782;28;20170;-77
2020/12/25 06:14:32;;;;;;;1.60;1.40;;;5.10;1.00;;;;;;4993919;28;20238;-77
2020/12/25 06:17:09;;;;;;;1.67;1.55;;;5.10;1.00;;;;;;4999409;28;20177;-77
2020/12/25 06:19:44;;;;;;;1.77;1.38;;;5.00;1.00;;;;;;4994935;28;20194;-76
2020/12/25 06:22:25;;;;;;;1.55;1.15;;;4.90;1.00;;;;;;4995633;28;20738;-75
2020/12/25 06:25:08;;;;;;;2.13;1.23;;;4.80;1.00;;;;;;5012435;28;20177;-76
2020/12/25 06:27:54;;;;;;;1.70;1.60;;;4.80;1.00;;;;;;5051505;28;20278;-75
2020/12/25 06:30:25;;;;;;;2.42;1.50;;;4.70;1.00;;;;;;5076469;28;20661;-75
2020/12/25 06:32:53;;;;;;;1.25;1.15;;;4.80;1.00;;;;;;5077943;28;20175;-76
2020/12/25 06:35:42;;;;;;;0.90;0.90;;;4.80;1.00;;;;;;5095906;28;20625;-77
2020/12/25 06:38:10;;;;;;;1.30;1.20;;;4.70;1.00;;;;;;5093611;28;20713;-77
2020/12/25 06:40:38;;;;;;;7.82;1.25;;;4.70;1.00;;;;;;5093057;28;20183;-77
2020/12/25 06:43:31;;;;;;;5.57;1.92;;;4.70;1.00;;;;;;5075341;28;20242;-78
2020/12/25 06:46:49;;;;;;;2.45;1.60;;;4.80;1.00;;;;;;5075656;28;20241;-77
2020/12/25 06:49:37;;;;;;;1.75;1.40;;;4.80;1.00;;;;;;5075138;28;20634;-77
2020/12/25 06:52:08;;;;;;;4.20;1.42;;;4.80;1.00;;;;;;5091449;28;20178;-74
2020/12/25 06:54:41;;;;;;;1.92;1.35;;;4.80;1.00;;;;;;5082388;28;20174;-77
2020/12/25 06:57:09;;;;;;;3.17;1.52;;;4.60;1.00;;;;;;5081493;28;20179;-76
2020/12/25 06:59:40;;;;;;;1.67;1.55;;;4.70;1.00;;;;;;5095515;28;20188;-77
2020/12/25 07:02:12;;;;;;;2.00;1.48;;;4.70;1.00;;;;;;5095619;28;20151;-76
2020/12/25 07:04:38;;;;;;;0.70;0.63;;;;;;;;;;5082514;28;20173;-76
2020/12/25 07:07:12;;;;;;;1.95;1.20;;;4.50;1.00;;;;;;5075332;28;20163;-77
2020/12/25 07:09:48;;;;;;;7.30;1.35;;;4.60;1.00;;;;;;5073950;28;20163;-78
2020/12/25 07:12:14;;;;;;;2.63;1.60;;;4.50;1.00;;;;;;5083786;28;20645;-77
2020/12/25 07:14:44;;;;;;;1.95;1.33;;;4.60;1.00;;;;;;5081697;28;20203;-77
2020/12/25 07:17:14;;;;;;;1.98;1.88;;;4.50;1.00;;;;;;5075008;28;20654;-77
2020/12/25 07:19:44;;;;;;;1.55;1.13;;;4.50;1.00;;;;;;5084138;28;20210;-77
2020/12/25 07:22:21;;;;;;;2.08;1.60;;;4.50;1.00;;;;;;5082214;28;20183;-78
2020/12/25 07:24:47;;;;;;;1.02;0.93;;;4.50;1.00;;;;;;5076970;28;20186;-77
2020/12/25 07:27:26;;;;;;;2.55;1.42;;;4.50;1.00;;;;;;5074686;28;20147;-78
2020/12/25 07:30:19;;;;;;;1.30;1.20;;;4.50;1.00;;;;;;5074682;28;20281;-77
2020/12/25 07:32:46;;;;;;;1.38;1.25;;;4.60;1.00;;;;;;5074674;28;20170;-78
2020/12/25 07:35:14;;;;;;;1.50;1.30;;;4.60;1.00;;;;;;5074491;28;20163;-77
2020/12/25 07:38:20;;;;;;;1.20;1.13;;;4.60;1.00;;;;;;5077082;28;20170;-77
2020/12/25 07:40:46;;;;;;;1.70;1.30;;;4.60;1.00;;;;;;5092709;28;20236;-77
2020/12/25 07:43:14;;;;;;;1.90;1.55;;;4.70;1.00;;;;;;5094586;28;20613;-77
2020/12/25 07:45:50;;;;;;;2.35;1.40;;;4.70;1.00;;;;;;5094601;28;20197;-77
2020/12/25 07:48:22;;;;;;;1.50;1.40;;;4.70;1.00;;;;;;5083372;28;20175;-76
2020/12/25 07:50:50;;;;;;;3.00;1.77;;;4.60;1.00;;;;;;5076421;28;20183;-77
2020/12/25 07:53:20;;;;;;;1.45;1.35;;;4.60;1.00;;;;;;5074959;28;20163;-76
2020/12/25 07:55:50;;;;;;;3.25;1.65;;;4.60;1.00;;;;;;5074432;28;20633;-76
2020/12/25 07:58:20;;;;;;;1.70;1.60;;;4.60;1.00;;;;;;5074258;28;20581;-76
2020/12/25 08:00:46;;;;;;;2.67;1.02;;;4.70;1.00;;;;;;5074128;28;20190;-76
2020/12/25 08:03:13;;;;;;;1.70;1.60;;;4.70;1.00;;;;;;5074093;28;20167;-76
2020/12/25 08:05:44;;;;;;;3.88;1.85;;;4.70;1.00;;;;;;5074230;28;20460;-76
2020/12/25 08:08:20;;;;;;;1.70;1.60;;;4.70;1.00;;;;;;5074439;28;20183;-76
2020/12/25 08:10:47;;;;;;;1.42;1.33;;;4.80;1.00;;;;;;5073921;28;20200;-76
2020/12/25 08:13:14;;;;;;;1.40;1.30;;;4.80;1.00;;;;;;5076529;28;20163;-76
2020/12/25 08:15:50;;;;;;;1.95;1.30;;;4.80;1.00;;;;;;5094128;28;20455;-75
2020/12/25 08:18:27;;;;;;;3.05;2.13;;;4.80;1.00;;;;;;5086432;28;20244;-75
2020/12/25 08:21:02;;;;;;;1.25;1.15;;;4.80;1.00;;;;;;5073508;28;20736;-75
2020/12/25 08:23:44;;;;;;;2.15;1.70;;;4.70;1.00;;;;;;5090886;28;20170;-77
2020/12/25 08:26:29;;;;;;;1.58;1.10;;;4.80;1.00;;;;;;5093506;28;20253;-77
2020/12/25 08:29:08;;;;;;;1.40;1.30;;;4.80;1.00;;;;;;5084597;28;20179;-77
2020/12/25 08:31:44;;;;;;;1.47;1.37;;;4.80;1.00;;;;;;5073427;28;20246;-77
2020/12/25 08:34:26;;;;;;;1.67;1.25;;;4.80;1.00;;;;;;5080510;28;20408;-77
2020/12/25 08:40:15;;;;;;;1.55;1.30;;;5.00;1.00;;;;;;5113840;28;20274;-78
2020/12/25 08:43:09;;;;;;;1.77;1.55;;;5.10;1.00;;;;;;5089642;28;20206;-77
2020/12/25 08:45:36;;;;;;;2.60;1.13;;;5.10;1.00;;;;;;5073473;28;20155;-77
2020/12/25 08:48:11;;;;;;;1.00;1.00;;;5.10;1.00;;;;;;5072224;28;20541;-77
2020/12/25 08:51:12;;;;;;;6.13;1.55;;;5.10;1.00;;;;;;5085385;28;20188;-77
2020/12/25 08:53:38;;;;;;;1.53;1.10;;;5.10;1.00;;;;;;5093901;28;20604;-74
2020/12/25 08:56:18;;;;;;;1.05;0.95;;;5.00;1.00;;;;;;5093415;28;20487;-75
2020/12/25 08:59:03;;;;;;;2.05;1.33;;;5.00;1.00;;;;;;5091511;28;20224;-74
2020/12/25 09:01:31;;;;;;;0.85;0.85;;;5.00;1.00;;;;;;5085169;28;20223;-74
2020/12/25 09:03:58;;;;;;;1.35;1.25;;;;;;;;;;5077914;28;20273;-74
2020/12/25 09:06:25;;;;;;;1.98;1.20;;;5.00;1.00;;;;;;5073171;28;20153;-75
2020/12/25 09:09:09;;;;;;;4.90;1.30;;;5.10;1.00;;;;;;5073211;28;20171;-75
2020/12/25 09:12:02;;;;;;;1.30;1.00;;;5.20;1.00;;;;;;5073299;28;20649;-75
2020/12/25 09:14:27;;;;;;;5.87;1.30;;;5.30;1.00;;;;;;5072774;28;20409;-76
2020/12/25 09:16:53;;;;;;;1.30;1.20;;;;;;;;;;5073124;28;20389;-75
2020/12/25 09:19:19;;;;;;;1.53;1.20;;;5.30;1.00;;;;;;5074081;28;20222;-75
2020/12/25 09:21:50;;;;;;;1.33;1.23;;;5.30;1.00;;;;;;5078232;28;20514;-74
2020/12/25 09:27:56;;;;;;;1.30;1.17;;;5.40;1.00;;;;;;5079642;28;20446;-77
2020/12/25 09:30:35;;;;;;;3.13;1.20;;;5.50;1.00;;;;;;5077265;28;20665;-77
2020/12/25 09:33:08;;;;;;;0.85;0.85;;;5.60;1.00;;;;;;5074705;28;20436;-77
2020/12/25 09:35:38;;;;;;;3.15;1.08;;;5.50;1.00;;;;;;5086045;28;20187;-77
2020/12/25 09:38:43;;;;;;;2.88;1.40;;;5.30;1.00;;;;;;5077300;28;20645;-76
2020/12/25 09:41:09;;;;;;;2.72;1.20;;;5.10;1.00;;;;;;5087449;28;20603;-77
2020/12/25 09:43:38;;;;;;;1.42;1.30;;;5.00;1.00;;;;;;5079089;28;20259;-77
2020/12/25 09:46:08;;;;;;;0.75;0.75;;;5.10;1.00;;;;;;5079270;28;20214;-77
2020/12/25 09:48:38;;;;;;;0.75;0.73;;;5.00;1.00;;;;;;5076569;28;20240;-77
2020/12/25 09:51:05;;;;;;;0.80;0.80;;;5.10;1.00;;;;;;5079650;28;20183;-77
2020/12/25 09:53:32;;;;;;;1.58;1.27;;;;;;;;;;5077029;28;20182;-77
2020/12/25 09:56:02;;;;;;;2.83;1.20;;;5.10;1.00;;;;;;5076385;28;20202;-77
2020/12/25 09:58:38;;;;;;;0.98;0.98;;;5.10;1.00;;;;;;5076635;28;20241;-76
2020/12/25 10:01:08;;;;;;;0.93;0.90;;;5.00;1.00;;;;;;5076271;28;20694;-77
2020/12/25 10:04:07;;;;;;;2.10;1.05;;;5.30;1.00;;;;;;5076317;28;20178;-77
2020/12/25 10:06:50;;;;;;;14.18;1.17;;;5.30;1.00;;;;;;5095702;28;20230;-77
2020/12/25 10:09:50;;;;;;;3.65;0.95;;;5.50;1.00;;;;;;5096675;28;20163;-79
2020/12/25 10:12:20;;;;;;;0.90;0.90;;;5.70;1.00;;;;;;5081146;28;20175;-78
2020/12/25 10:14:56;;;;;;;1.50;1.40;;;5.60;1.00;;;;;;5077466;28;20240;-77
2020/12/25 10:17:38;;;;;;;2.40;1.10;;;5.70;1.00;;;;;;5096263;28;20899;-77
2020/12/25 10:20:08;;;;;;;1.37;1.00;;;5.70;1.00;;;;;;5087017;28;20757;-77
2020/12/25 10:22:34;;;;;;;1.10;1.00;;;5.70;1.00;;;;;;5090096;28;20452;-77
2020/12/25 10:25:08;;;;;;;0.90;0.90;;;5.60;1.00;;;;;;5093754;28;20448;-76
2020/12/25 10:27:38;;;;;;;1.03;1.00;;;5.50;1.00;;;;;;5081616;28;20522;-82
2020/12/25 10:33:26;;;;;;;1.10;1.00;;;5.20;1.00;;;;;;5076742;28;20232;-77
2020/12/25 10:35:51;;;;;;;1.20;1.10;;;5.10;1.00;;;;;;5075737;28;20191;-74
2020/12/25 10:38:20;;;;;;;0.80;0.80;;;5.10;1.00;;;;;;5076639;28;20187;-75
2020/12/25 10:40:47;;;;;;;1.00;0.90;;;5.10;1.00;;;;;;5077149;28;20211;-74
2020/12/25 10:43:12;;;;;;;1.10;1.00;;;5.10;1.00;;;;;;5075771;28;20164;-74
2020/12/25 10:45:44;;;;;;;1.00;0.97;;;5.00;1.00;;;;;;5089634;28;20433;-75
2020/12/25 10:48:14;;;;;;;0.80;0.80;;;5.00;1.00;;;;;;5081033;28;20585;-74
2020/12/25 10:50:50;;;;;;;2.45;1.08;;;4.90;1.00;;;;;;5083956;28;20167;-74
2020/12/25 10:53:20;;;;;;;1.48;1.02;;;5.00;1.00;;;;;;5080076;28;20178;-77
2020/12/25 10:55:45;;;;;;;1.05;0.98;;;5.10;1.00;;;;;;5094493;28;20206;-74
2020/12/25 10:58:14;;;;;;;1.00;0.77;;;5.10;1.00;;;;;;5090904;28;20560;-74
2020/12/25 11:00:40;;;;;;;0.90;0.80;;;5.10;1.00;;;;;;5075442;28;20199;-73
2020/12/25 11:03:06;;;;;;;0.77;0.70;;;5.30;1.00;;;;;;5078090;28;20572;-73
2020/12/25 11:05:32;;;;;;;0.97;0.90;;;;;;;;;;5075216;28;20151;-74
2020/12/25 11:07:58;;;;;;;1.00;0.90;;;5.30;1.00;;;;;;5075070;28;20428;-74
2020/12/25 11:10:25;;;;;;;1.93;0.93;;;5.40;1.00;;;;;;5076674;28;20217;-74
2020/12/25 11:12:51;;;;;;;1.08;0.80;;;;;;;;;;5075006;28;20194;-75
2020/12/25 11:15:17;;;;;;;1.10;0.75;;;5.30;1.00;;;;;;5090276;28;20269;-75
2020/12/25 11:17:44;;;;;;;0.80;0.80;;;;;;;;;;5075328;28;20305;-74
2020/12/25 11:20:10;;;;;;;1.03;1.03;;;;;;;;;;5074932;28;20240;-75
2020/12/25 11:22:44;;;;;;;1.10;0.90;;;5.30;1.00;;;;;;5074803;28;20846;-75
2020/12/25 11:25:20;;;;;;;2.00;1.03;;;5.30;1.00;;;;;;5074933;28;20390;-75
2020/12/25 11:27:46;;;;;;;1.13;1.03;;;5.30;1.00;;;;;;5074707;28;20880;-75
2020/12/25 11:30:14;;;;;;;4.00;1.00;;;;;;;;;;5074695;28;20406;-75
2020/12/25 11:32:50;;;;;;;1.30;1.20;;;5.10;1.00;;;;;;5074589;28;20195;-75
2020/12/25 11:35:20;;;;;;;0.80;0.80;;;5.20;1.00;;;;;;5074378;28;20217;-75
2020/12/25 11:37:50;;;;;;;1.30;0.60;;;5.30;1.00;;;;;;5074640;28;20617;-74
2020/12/25 11:40:15;;;;;;;3.93;1.40;;;5.30;1.00;;;;;;5074723;28;20198;-78
2020/12/25 11:43:26;;;;;;;1.20;1.10;;;5.40;1.00;;;;;;5074527;28;20404;-78
2020/12/25 11:45:58;;;;;;;2.45;1.70;;;5.40;1.00;;;;;;5074237;28;20148;-79
2020/12/25 11:48:33;;;;;;;5.07;2.20;;;5.40;1.00;;;;;;5077813;28;20227;-79
2020/12/25 11:51:04;;;;;;;1.95;1.40;;;5.40;1.00;;;;;;5085797;28;20167;-79
2020/12/25 11:53:32;;;;;;;5.70;1.42;;;5.50;1.00;;;;;;5091095;28;20182;-79
2020/12/25 11:56:02;;;;;;;1.98;1.15;;;5.50;1.00;;;;;;5094778;28;20508;-77
2020/12/25 11:58:28;;;;;;;6.33;2.00;;;5.60;1.00;;;;;;5094223;28;20170;-79
2020/12/25 12:00:58;;;;;;;1.50;1.27;;;5.70;1.00;;;;;;5073954;28;20586;-79
2020/12/25 12:03:26;;;;;;;2.93;1.63;;;;;;;;;;5073942;28;20385;-80
2020/12/25 12:06:09;;;;;;;9.33;2.03;;;5.80;1.00;;;;;;5073922;28;20382;-79
2020/12/25 12:08:35;;;;;;;0.80;0.80;;;;;;;;;;5073722;28;20386;-79
2020/12/25 12:11:02;;;;;;;0.73;0.70;;;6.10;1.00;;;;;;5074057;28;20397;-77
2020/12/25 12:13:28;;;;;;;0.87;0.87;;;6.10;1.00;;;;;;5073880;28;20480;-77
2020/12/25 12:15:56;;;;;;;0.80;0.80;;;6.20;1.00;;;;;;5073418;28;20520;-76
2020/12/25 12:18:27;;;;;;;0.90;0.90;;;6.30;1.00;;;;;;5081847;28;20491;-77
2020/12/25 12:20:56;;;;;;;1.20;1.00;;;6.20;1.00;;;;;;5075042;28;20959;-76
2020/12/25 12:23:26;;;;;;;0.83;0.83;;;6.20;1.00;;;;;;5073915;28;20421;-76
2020/12/25 12:26:04;;;;;;;1.17;1.07;;;6.20;1.00;;;;;;5073961;28;20393;-76
2020/12/25 12:28:32;;;;;;;0.90;0.70;;;6.20;1.00;;;;;;5073617;28;20413;-76
2020/12/25 12:31:03;;;;;;;1.30;1.07;;;6.20;1.00;;;;;;5073838;28;20511;-76
2020/12/25 12:33:32;;;;;;;0.70;0.70;;;6.20;1.00;;;;;;5073627;28;20430;-76
2020/12/25 12:36:38;;;;;;;5.53;1.27;;;6.30;1.00;;;;;;5073752;28;20916;-76
2020/12/25 12:39:14;;;;;;;0.80;0.80;;;6.20;1.00;;;;;;5091667;28;20416;-77
2020/12/25 12:41:40;;;;;;;5.57;0.70;;;6.10;1.00;;;;;;5077370;28;20452;-75
2020/12/25 12:44:05;;;;;;;0.70;0.70;;;6.20;1.00;;;;;;5073706;28;20389;-75
2020/12/25 12:46:31;;;;;;;4.10;0.80;;;6.10;1.00;;;;;;5073525;28;20170;-74
2020/12/25 12:48:57;;;;;;;1.13;0.87;;;6.10;1.00;;;;;;5073548;28;20632;-72
2020/12/25 12:51:22;;;;;;;1.00;0.70;;;6.00;1.00;;;;;;5073554;28;20212;-74
2020/12/25 12:53:48;;;;;;;1.40;0.80;;;6.00;1.00;;;;;;5073490;28;20190;-74
2020/12/25 12:56:20;;;;;;;1.43;1.00;;;6.00;1.00;;;;;;5082795;28;20171;-76
2020/12/25 12:58:56;;;;;;;2.00;1.07;;;6.20;1.00;;;;;;5093715;28;20191;-77
2020/12/25 13:01:26;;;;;;;3.43;0.60;;;6.20;1.00;;;;;;5073341;28;20444;-77
2020/12/25 13:03:52;;;;;;;1.13;0.77;;;6.20;1.00;;;;;;5074020;28;20432;-77
2020/12/25 13:06:26;;;;;;;0.70;0.70;;;6.30;1.00;;;;;;5073659;28;20381;-77
2020/12/25 13:09:08;;;;;;;0.83;0.83;;;6.40;1.00;;;;;;5079047;28;20173;-79
2020/12/25 13:11:56;;;;;;;1.67;0.80;;;6.10;1.00;;;;;;5091015;28;20512;-78
2020/12/25 13:14:27;;;;;;;0.90;0.80;;;6.20;1.00;;;;;;5100053;28;20471;-78
2020/12/25 13:16:53;;;;;;;1.67;0.83;;;6.20;1.00;;;;;;5100245;28;20408;-78
2020/12/25 13:19:26;;;;;;;2.13;0.80;;;6.30;1.00;;;;;;5100046;28;20403;-78
2020/12/25 13:22:14;;;;;;;0.40;0.40;;;6.30;1.00;;;;;;5098683;28;20418;-78
2020/12/25 13:24:50;;;;;;;1.10;0.83;;;6.20;1.00;;;;;;5100254;28;20384;-79
2020/12/25 13:27:20;;;;;;;0.50;0.50;;;6.20;1.00;;;;;;5101319;28;20471;-79
2020/12/25 13:29:51;;;;;;;1.37;0.70;;;6.10;1.00;;;;;;5120549;28;20388;-79
2020/12/25 13:32:34;;;;;;;0.60;0.50;;;6.10;1.00;;;;;;5102700;27;20899;-79
2020/12/25 13:35:05;;;;;;;2.63;0.70;;;6.20;1.00;;;;;;5079750;28;20395;-79
2020/12/25 13:37:38;;;;;;;0.80;0.80;;;6.10;1.00;;;;;;5079684;28;20405;-79
2020/12/25 13:40:08;;;;;;;0.50;0.50;;;6.10;1.00;;;;;;5097835;28;20455;-78
2020/12/25 13:43:08;;;;;;;0.80;0.50;;;6.10;1.00;;;;;;5099921;28;20416;-78
2020/12/25 13:46:26;;;;;;;1.07;0.50;;;6.10;1.00;;;;;;5100089;28;20384;-77
2020/12/25 13:52:38;;;;;;;0.60;0.53;;;5.90;1.00;;;;;;5079836;28;20423;-78
2020/12/25 13:55:08;;;;;;;0.50;0.50;;;6.00;1.00;;;;;;5091004;28;20412;-77
2020/12/25 13:57:53;;;;;;;1.30;0.73;;;6.10;1.00;;;;;;5099746;28;20388;-78
2020/12/25 14:00:19;;;;;;;0.77;0.70;;;6.10;1.00;;;;;;5080969;28;20505;-80
2020/12/25 14:02:56;;;;;;;3.70;0.60;;;6.20;1.00;;;;;;5087254;28;20891;-80
2020/12/25 14:05:22;;;;;;;0.50;0.50;;;6.20;1.00;;;;;;5084883;28;20182;-81
2020/12/25 14:11:50;;;;;;;0.83;0.73;;;6.50;1.00;;;;;;5095007;28;20263;-80
2020/12/25 14:14:16;;;;;;;0.50;0.50;;;6.70;1.00;;;;;;5081110;28;20420;-74
2020/12/25 14:16:51;;;;;;;1.13;0.70;;;6.90;1.00;;;;;;5084058;28;20417;-75
2020/12/25 14:19:20;;;;;;;0.63;0.60;;;7.00;1.00;;;;;;5077113;28;20218;-74
2020/12/25 14:21:46;;;;;;;0.87;0.60;;;7.20;1.00;;;;;;5076138;28;20417;-74
2020/12/25 14:24:12;;;;;;;0.50;0.50;;;7.20;1.00;;;;;;5075931;28;20424;-75
2020/12/25 14:26:38;;;;;;;1.77;0.60;;;7.10;1.00;;;;;;5088343;28;20178;-81
2020/12/25 14:29:32;;;;;;;0.70;0.70;;;6.90;1.00;;;;;;5083902;28;20511;-80
2020/12/25 14:32:02;;;;;;;1.40;0.80;;;7.00;1.00;;;;;;5075911;28;20425;-80
2020/12/25 14:34:28;;;;;;;1.13;0.53;;;6.90;1.00;;;;;;5081062;28;20829;-80
2020/12/25 14:37:14;;;;;;;0.40;0.40;;;6.80;1.00;;;;;;5088784;28;20424;-80
2020/12/25 14:39:40;;;;;;;2.10;0.67;;;6.70;1.00;;;;;;5087334;28;20201;-74
2020/12/25 14:42:05;;;;;;;0.50;0.50;;;6.60;1.00;;;;;;5085177;28;20460;-74
2020/12/25 14:44:38;;;;;;;0.50;0.50;;;6.60;1.00;;;;;;5078629;28;20178;-75
2020/12/25 14:47:12;;;;;;;1.83;0.50;;;6.50;1.00;;;;;;5077604;28;20171;-74
2020/12/25 14:49:38;;;;;;;0.43;0.43;;;6.30;1.00;;;;;;5090129;28;20439;-74
2020/12/25 14:52:08;;;;;;;1.27;0.70;;;6.10;1.00;;;;;;5086659;28;20490;-74
2020/12/25 14:54:34;;;;;;;1.10;0.63;;;5.90;1.00;;;;;;5085801;28;20444;-73